sensor_id;sensor_type;location;lat;lon;timestamp;P1;durP1;ratioP1;P2;durP2;ratioP2
40541;SDS011;49288;52.194;5.676;2024-03-07T00:04:05;74.70;;;28.88;;
40541;SDS011;49288;52.194;5.676;2024-03-07T00:09:08;79.80;;;27.67;;
40541;SDS011;49288;52.194;5.676;2024-03-07T00:14:12;75.38;;;27.02;;
40541;SDS011;49288;52.194;5.676;2024-03-07T00:19:14;65.53;;;23.58;;
40541;SDS011;49288;52.194;5.676;2024-03-07T00:24:17;82.10;;;27.17;;
40541;SDS011;49288;52.194;5.676;2024-03-07T00:29:22;75.05;;;27.73;;
40541;SDS011;49288;52.194;5.676;2024-03-07T00:34:25;78.38;;;28.20;;
40541;SDS011;49288;52.194;5.676;2024-03-07T00:39:28;75.07;;;28.00;;
40541;SDS011;49288;52.194;5.676;2024-03-07T00:44:37;64.93;;;24.60;;
40541;SDS011;49288;52.194;5.676;2024-03-07T00:49:42;73.25;;;26.52;;
40541;SDS011;49288;52.194;5.676;2024-03-07T00:54:46;72.97;;;25.38;;
40541;SDS011;49288;52.194;5.676;2024-03-07T01:00:07;61.58;;;24.77;;
40541;SDS011;49288;52.194;5.676;2024-03-07T01:05:16;75.78;;;27.88;;
40541;SDS011;49288;52.194;5.676;2024-03-07T01:10:20;71.45;;;26.70;;
40541;SDS011;49288;52.194;5.676;2024-03-07T01:15:23;78.90;;;27.27;;
40541;SDS011;49288;52.194;5.676;2024-03-07T01:20:27;84.38;;;28.58;;
40541;SDS011;49288;52.194;5.676;2024-03-07T01:25:31;72.80;;;27.43;;
40541;SDS011;49288;52.194;5.676;2024-03-07T01:30:38;68.45;;;24.35;;
40541;SDS011;49288;52.194;5.676;2024-03-07T01:35:43;64.28;;;24.23;;
40541;SDS011;49288;52.194;5.676;2024-03-07T01:40:46;61.85;;;24.00;;
40541;SDS011;49288;52.194;5.676;2024-03-07T01:45:48;72.55;;;26.15;;
40541;SDS011;49288;52.194;5.676;2024-03-07T01:50:55;86.65;;;29.23;;
40541;SDS011;49288;52.194;5.676;2024-03-07T01:56:00;75.38;;;26.17;;
40541;SDS011;49288;52.194;5.676;2024-03-07T02:01:06;84.65;;;29.75;;
40541;SDS011;49288;52.194;5.676;2024-03-07T02:06:09;81.10;;;28.15;;
40541;SDS011;49288;52.194;5.676;2024-03-07T02:16:16;65.90;;;23.65;;
40541;SDS011;49288;52.194;5.676;2024-03-07T02:21:18;82.15;;;30.25;;
40541;SDS011;49288;52.194;5.676;2024-03-07T02:26:22;67.93;;;25.57;;
40541;SDS011;49288;52.194;5.676;2024-03-07T02:31:26;77.90;;;28.35;;
40541;SDS011;49288;52.194;5.676;2024-03-07T02:36:37;74.82;;;27.98;;
40541;SDS011;49288;52.194;5.676;2024-03-07T02:41:40;101.72;;;33.47;;
40541;SDS011;49288;52.194;5.676;2024-03-07T02:46:43;80.53;;;27.80;;
40541;SDS011;49288;52.194;5.676;2024-03-07T02:51:47;94.90;;;32.47;;
40541;SDS011;49288;52.194;5.676;2024-03-07T02:56:50;98.50;;;33.45;;
40541;SDS011;49288;52.194;5.676;2024-03-07T03:06:57;77.28;;;27.30;;
40541;SDS011;49288;52.194;5.676;2024-03-07T03:12:00;90.40;;;31.42;;
40541;SDS011;49288;52.194;5.676;2024-03-07T03:17:03;93.32;;;31.35;;
40541;SDS011;49288;52.194;5.676;2024-03-07T03:22:07;102.03;;;34.75;;
40541;SDS011;49288;52.194;5.676;2024-03-07T03:27:12;98.35;;;34.88;;
40541;SDS011;49288;52.194;5.676;2024-03-07T03:32:33;82.38;;;28.63;;
40541;SDS011;49288;52.194;5.676;2024-03-07T03:37:36;99.90;;;35.17;;
40541;SDS011;49288;52.194;5.676;2024-03-07T03:42:39;98.00;;;34.30;;
40541;SDS011;49288;52.194;5.676;2024-03-07T03:47:43;115.22;;;37.88;;
40541;SDS011;49288;52.194;5.676;2024-03-07T03:52:54;100.90;;;34.45;;
40541;SDS011;49288;52.194;5.676;2024-03-07T03:57:57;99.03;;;33.17;;
40541;SDS011;49288;52.194;5.676;2024-03-07T04:03:00;108.65;;;35.85;;
40541;SDS011;49288;52.194;5.676;2024-03-07T04:08:03;86.47;;;30.88;;
40541;SDS011;49288;52.194;5.676;2024-03-07T04:13:07;85.72;;;31.67;;
40541;SDS011;49288;52.194;5.676;2024-03-07T04:18:10;93.00;;;32.90;;
40541;SDS011;49288;52.194;5.676;2024-03-07T04:23:14;98.45;;;34.63;;
40541;SDS011;49288;52.194;5.676;2024-03-07T04:28:37;97.22;;;32.50;;
40541;SDS011;49288;52.194;5.676;2024-03-07T04:33:40;98.10;;;33.00;;
40541;SDS011;49288;52.194;5.676;2024-03-07T04:38:44;111.03;;;38.25;;
40541;SDS011;49288;52.194;5.676;2024-03-07T04:43:47;84.03;;;29.98;;
40541;SDS011;49288;52.194;5.676;2024-03-07T04:48:51;104.32;;;34.13;;
40541;SDS011;49288;52.194;5.676;2024-03-07T04:53:55;103.47;;;34.88;;
40541;SDS011;49288;52.194;5.676;2024-03-07T04:58:58;114.32;;;37.55;;
40541;SDS011;49288;52.194;5.676;2024-03-07T05:04:04;115.20;;;37.97;;
40541;SDS011;49288;52.194;5.676;2024-03-07T05:09:09;107.90;;;36.87;;
40541;SDS011;49288;52.194;5.676;2024-03-07T05:14:28;101.32;;;34.50;;
40541;SDS011;49288;52.194;5.676;2024-03-07T05:19:32;121.60;;;37.50;;
40541;SDS011;49288;52.194;5.676;2024-03-07T05:24:36;104.95;;;36.92;;
40541;SDS011;49288;52.194;5.676;2024-03-07T05:29:39;122.45;;;40.60;;
40541;SDS011;49288;52.194;5.676;2024-03-07T05:34:44;116.90;;;37.92;;
40541;SDS011;49288;52.194;5.676;2024-03-07T05:39:47;144.23;;;42.20;;
40541;SDS011;49288;52.194;5.676;2024-03-07T05:44:51;106.63;;;37.50;;
40541;SDS011;49288;52.194;5.676;2024-03-07T05:49:57;131.52;;;41.08;;
40541;SDS011;49288;52.194;5.676;2024-03-07T05:55:02;134.02;;;41.63;;
40541;SDS011;49288;52.194;5.676;2024-03-07T06:00:09;112.32;;;35.15;;
40541;SDS011;49288;52.194;5.676;2024-03-07T06:05:14;148.05;;;44.80;;
40541;SDS011;49288;52.194;5.676;2024-03-07T06:10:18;105.03;;;34.78;;
40541;SDS011;49288;52.194;5.676;2024-03-07T06:15:26;113.20;;;37.50;;
40541;SDS011;49288;52.194;5.676;2024-03-07T06:20:29;119.95;;;38.45;;
40541;SDS011;49288;52.194;5.676;2024-03-07T06:25:36;150.90;;;47.07;;
40541;SDS011;49288;52.194;5.676;2024-03-07T06:30:41;118.47;;;37.72;;
40541;SDS011;49288;52.194;5.676;2024-03-07T06:35:48;123.57;;;39.65;;
40541;SDS011;49288;52.194;5.676;2024-03-07T06:40:55;149.55;;;46.08;;
40541;SDS011;49288;52.194;5.676;2024-03-07T06:45:59;147.60;;;48.13;;
40541;SDS011;49288;52.194;5.676;2024-03-07T06:51:02;161.93;;;49.58;;
40541;SDS011;49288;52.194;5.676;2024-03-07T06:56:05;146.85;;;45.00;;
40541;SDS011;49288;52.194;5.676;2024-03-07T07:01:09;169.77;;;47.57;;
40541;SDS011;49288;52.194;5.676;2024-03-07T07:06:14;151.95;;;46.85;;
40541;SDS011;49288;52.194;5.676;2024-03-07T07:11:17;138.05;;;42.40;;
40541;SDS011;49288;52.194;5.676;2024-03-07T07:16:20;172.50;;;47.40;;
40541;SDS011;49288;52.194;5.676;2024-03-07T07:21:23;204.63;;;52.33;;
40541;SDS011;49288;52.194;5.676;2024-03-07T07:26:26;196.88;;;49.65;;
40541;SDS011;49288;52.194;5.676;2024-03-07T07:31:29;249.82;;;60.40;;
40541;SDS011;49288;52.194;5.676;2024-03-07T07:36:31;303.08;;;64.05;;
40541;SDS011;49288;52.194;5.676;2024-03-07T07:41:34;288.35;;;63.95;;
40541;SDS011;49288;52.194;5.676;2024-03-07T07:46:38;309.38;;;62.63;;
40541;SDS011;49288;52.194;5.676;2024-03-07T07:51:42;305.95;;;66.40;;
40541;SDS011;49288;52.194;5.676;2024-03-07T07:57:03;333.08;;;70.78;;
40541;SDS011;49288;52.194;5.676;2024-03-07T08:02:07;374.00;;;83.20;;
40541;SDS011;49288;52.194;5.676;2024-03-07T08:07:09;353.27;;;68.45;;
40541;SDS011;49288;52.194;5.676;2024-03-07T08:12:17;346.42;;;75.65;;
40541;SDS011;49288;52.194;5.676;2024-03-07T08:17:22;340.40;;;74.93;;
40541;SDS011;49288;52.194;5.676;2024-03-07T08:22:27;334.70;;;77.03;;
40541;SDS011;49288;52.194;5.676;2024-03-07T08:27:33;325.35;;;73.97;;
40541;SDS011;49288;52.194;5.676;2024-03-07T08:32:36;309.15;;;76.18;;
40541;SDS011;49288;52.194;5.676;2024-03-07T08:37:39;265.52;;;71.60;;
40541;SDS011;49288;52.194;5.676;2024-03-07T08:42:43;197.65;;;65.20;;
40541;SDS011;49288;52.194;5.676;2024-03-07T08:47:48;192.50;;;57.37;;
40541;SDS011;49288;52.194;5.676;2024-03-07T08:52:55;170.25;;;50.03;;
40541;SDS011;49288;52.194;5.676;2024-03-07T08:57:59;129.95;;;47.92;;
40541;SDS011;49288;52.194;5.676;2024-03-07T09:03:02;67.72;;;33.80;;
40541;SDS011;49288;52.194;5.676;2024-03-07T09:08:06;58.23;;;28.67;;
40541;SDS011;49288;52.194;5.676;2024-03-07T09:13:10;48.00;;;22.67;;
40541;SDS011;49288;52.194;5.676;2024-03-07T09:18:16;44.83;;;22.33;;
40541;SDS011;49288;52.194;5.676;2024-03-07T09:23:18;48.50;;;24.17;;
40541;SDS011;49288;52.194;5.676;2024-03-07T09:28:21;42.00;;;20.63;;
40541;SDS011;49288;52.194;5.676;2024-03-07T09:33:26;43.95;;;21.73;;
40541;SDS011;49288;52.194;5.676;2024-03-07T09:38:30;44.17;;;20.30;;
40541;SDS011;49288;52.194;5.676;2024-03-07T09:43:33;38.90;;;19.33;;
40541;SDS011;49288;52.194;5.676;2024-03-07T09:48:36;39.10;;;18.92;;
40541;SDS011;49288;52.194;5.676;2024-03-07T09:53:39;38.97;;;19.52;;
40541;SDS011;49288;52.194;5.676;2024-03-07T09:58:43;40.67;;;18.88;;
40541;SDS011;49288;52.194;5.676;2024-03-07T10:03:50;39.58;;;20.52;;
40541;SDS011;49288;52.194;5.676;2024-03-07T10:08:56;28.35;;;13.88;;
40541;SDS011;49288;52.194;5.676;2024-03-07T10:19:05;33.42;;;16.33;;
40541;SDS011;49288;52.194;5.676;2024-03-07T10:24:08;43.50;;;20.85;;
40541;SDS011;49288;52.194;5.676;2024-03-07T10:29:13;36.33;;;18.20;;
40541;SDS011;49288;52.194;5.676;2024-03-07T10:34:15;38.05;;;18.75;;
40541;SDS011;49288;52.194;5.676;2024-03-07T10:39:18;42.50;;;19.85;;
40541;SDS011;49288;52.194;5.676;2024-03-07T10:44:24;35.65;;;17.10;;
40541;SDS011;49288;52.194;5.676;2024-03-07T10:49:31;36.88;;;16.42;;
40541;SDS011;49288;52.194;5.676;2024-03-07T10:59:55;40.35;;;20.00;;
40541;SDS011;49288;52.194;5.676;2024-03-07T11:05:00;38.35;;;19.73;;
40541;SDS011;49288;52.194;5.676;2024-03-07T11:10:04;38.88;;;18.75;;
40541;SDS011;49288;52.194;5.676;2024-03-07T11:15:13;40.35;;;17.20;;
40541;SDS011;49288;52.194;5.676;2024-03-07T11:25:24;35.38;;;21.30;;
40541;SDS011;49288;52.194;5.676;2024-03-07T11:30:32;44.00;;;18.05;;
40541;SDS011;49288;52.194;5.676;2024-03-07T11:35:34;32.45;;;17.38;;
40541;SDS011;49288;52.194;5.676;2024-03-07T11:45:45;37.92;;;18.90;;
40541;SDS011;49288;52.194;5.676;2024-03-07T11:50:54;34.97;;;17.75;;
40541;SDS011;49288;52.194;5.676;2024-03-07T11:55:58;32.95;;;16.58;;
40541;SDS011;49288;52.194;5.676;2024-03-07T12:01:04;39.88;;;17.67;;
40541;SDS011;49288;52.194;5.676;2024-03-07T12:06:08;32.60;;;16.10;;
40541;SDS011;49288;52.194;5.676;2024-03-07T12:11:15;32.13;;;17.15;;
40541;SDS011;49288;52.194;5.676;2024-03-07T12:16:18;39.17;;;16.80;;
40541;SDS011;49288;52.194;5.676;2024-03-07T12:21:21;37.72;;;18.98;;
40541;SDS011;49288;52.194;5.676;2024-03-07T12:26:24;34.33;;;19.05;;
40541;SDS011;49288;52.194;5.676;2024-03-07T12:31:28;33.27;;;16.40;;
40541;SDS011;49288;52.194;5.676;2024-03-07T12:36:35;31.80;;;17.85;;
40541;SDS011;49288;52.194;5.676;2024-03-07T12:41:50;37.08;;;18.88;;
40541;SDS011;49288;52.194;5.676;2024-03-07T12:46:56;31.00;;;17.48;;
40541;SDS011;49288;52.194;5.676;2024-03-07T12:51:59;31.80;;;16.10;;
40541;SDS011;49288;52.194;5.676;2024-03-07T12:57:02;29.25;;;15.80;;
40541;SDS011;49288;52.194;5.676;2024-03-07T13:02:11;37.00;;;19.67;;
40541;SDS011;49288;52.194;5.676;2024-03-07T13:07:17;29.63;;;16.58;;
40541;SDS011;49288;52.194;5.676;2024-03-07T13:12:19;29.92;;;17.38;;
40541;SDS011;49288;52.194;5.676;2024-03-07T13:17:23;33.47;;;16.73;;
40541;SDS011;49288;52.194;5.676;2024-03-07T13:22:26;33.95;;;18.73;;
40541;SDS011;49288;52.194;5.676;2024-03-07T13:27:29;31.52;;;17.00;;
40541;SDS011;49288;52.194;5.676;2024-03-07T13:32:34;30.97;;;16.50;;
40541;SDS011;49288;52.194;5.676;2024-03-07T13:37:37;27.45;;;15.40;;
40541;SDS011;49288;52.194;5.676;2024-03-07T13:42:40;28.92;;;16.42;;
40541;SDS011;49288;52.194;5.676;2024-03-07T13:47:43;28.30;;;17.48;;
40541;SDS011;49288;52.194;5.676;2024-03-07T13:52:46;32.30;;;17.50;;
40541;SDS011;49288;52.194;5.676;2024-03-07T13:58:07;29.40;;;16.25;;
40541;SDS011;49288;52.194;5.676;2024-03-07T14:30:52;33.72;;;19.65;;
40541;SDS011;49288;52.194;5.676;2024-03-07T14:35:59;25.75;;;15.50;;
40541;SDS011;49288;52.194;5.676;2024-03-07T14:41:06;28.58;;;15.77;;
40541;SDS011;49288;52.194;5.676;2024-03-07T14:46:14;28.38;;;15.73;;
40541;SDS011;49288;52.194;5.676;2024-03-07T14:51:18;31.05;;;17.77;;
40541;SDS011;49288;52.194;5.676;2024-03-07T14:56:42;31.33;;;16.02;;
40541;SDS011;49288;52.194;5.676;2024-03-07T15:01:45;28.17;;;16.35;;
40541;SDS011;49288;52.194;5.676;2024-03-07T15:06:48;29.63;;;16.77;;
40541;SDS011;49288;52.194;5.676;2024-03-07T15:11:54;30.58;;;16.95;;
40541;SDS011;49288;52.194;5.676;2024-03-07T15:16:57;22.88;;;12.35;;
40541;SDS011;49288;52.194;5.676;2024-03-07T15:22:00;34.25;;;17.25;;
40541;SDS011;49288;52.194;5.676;2024-03-07T15:27:05;31.40;;;16.38;;
40541;SDS011;49288;52.194;5.676;2024-03-07T15:32:08;33.55;;;17.42;;
40541;SDS011;49288;52.194;5.676;2024-03-07T15:37:12;36.20;;;18.08;;
40541;SDS011;49288;52.194;5.676;2024-03-07T15:42:18;34.30;;;18.17;;
40541;SDS011;49288;52.194;5.676;2024-03-07T15:47:21;33.10;;;17.27;;
40541;SDS011;49288;52.194;5.676;2024-03-07T15:52:23;38.90;;;17.92;;
40541;SDS011;49288;52.194;5.676;2024-03-07T15:57:26;31.75;;;17.40;;
40541;SDS011;49288;52.194;5.676;2024-03-07T16:02:29;31.27;;;16.27;;
40541;SDS011;49288;52.194;5.676;2024-03-07T16:07:32;39.65;;;19.08;;
40541;SDS011;49288;52.194;5.676;2024-03-07T16:12:35;32.70;;;17.20;;
40541;SDS011;49288;52.194;5.676;2024-03-07T16:17:38;40.22;;;19.58;;
40541;SDS011;49288;52.194;5.676;2024-03-07T16:22:46;40.92;;;19.52;;
40541;SDS011;49288;52.194;5.676;2024-03-07T16:27:51;41.13;;;18.08;;
40541;SDS011;49288;52.194;5.676;2024-03-07T16:32:55;40.15;;;19.33;;
40541;SDS011;49288;52.194;5.676;2024-03-07T16:38:04;41.75;;;18.33;;
40541;SDS011;49288;52.194;5.676;2024-03-07T16:43:12;39.65;;;19.73;;
40541;SDS011;49288;52.194;5.676;2024-03-07T16:48:15;40.08;;;18.92;;
40541;SDS011;49288;52.194;5.676;2024-03-07T16:53:19;43.40;;;18.77;;
40541;SDS011;49288;52.194;5.676;2024-03-07T16:58:21;40.90;;;19.40;;
40541;SDS011;49288;52.194;5.676;2024-03-07T17:03:24;45.22;;;19.70;;
40541;SDS011;49288;52.194;5.676;2024-03-07T17:08:27;43.05;;;17.45;;
40541;SDS011;49288;52.194;5.676;2024-03-07T17:13:30;45.22;;;19.90;;
40541;SDS011;49288;52.194;5.676;2024-03-07T17:18:33;42.63;;;19.42;;
40541;SDS011;49288;52.194;5.676;2024-03-07T17:23:38;44.60;;;19.27;;
40541;SDS011;49288;52.194;5.676;2024-03-07T17:28:44;38.55;;;16.88;;
40541;SDS011;49288;52.194;5.676;2024-03-07T17:33:47;40.75;;;17.58;;
40541;SDS011;49288;52.194;5.676;2024-03-07T17:38:55;39.67;;;16.05;;
40541;SDS011;49288;52.194;5.676;2024-03-07T17:43:58;46.88;;;19.25;;
40541;SDS011;49288;52.194;5.676;2024-03-07T17:49:01;49.10;;;18.98;;
40541;SDS011;49288;52.194;5.676;2024-03-07T17:54:06;51.33;;;19.65;;
40541;SDS011;49288;52.194;5.676;2024-03-07T17:59:09;52.42;;;19.08;;
40541;SDS011;49288;52.194;5.676;2024-03-07T18:04:14;48.42;;;19.23;;
40541;SDS011;49288;52.194;5.676;2024-03-07T18:09:17;43.92;;;19.60;;
40541;SDS011;49288;52.194;5.676;2024-03-07T18:14:30;47.83;;;19.10;;
40541;SDS011;49288;52.194;5.676;2024-03-07T18:19:37;49.28;;;18.60;;
40541;SDS011;49288;52.194;5.676;2024-03-07T18:24:44;56.95;;;20.98;;
40541;SDS011;49288;52.194;5.676;2024-03-07T18:29:47;53.60;;;19.33;;
40541;SDS011;49288;52.194;5.676;2024-03-07T18:34:52;58.75;;;21.90;;
40541;SDS011;49288;52.194;5.676;2024-03-07T18:39:55;52.97;;;19.95;;
40541;SDS011;49288;52.194;5.676;2024-03-07T18:50:13;51.58;;;19.40;;
40541;SDS011;49288;52.194;5.676;2024-03-07T18:55:17;55.00;;;21.97;;
40541;SDS011;49288;52.194;5.676;2024-03-07T19:00:22;48.47;;;19.77;;
40541;SDS011;49288;52.194;5.676;2024-03-07T19:05:38;56.78;;;23.60;;
40541;SDS011;49288;52.194;5.676;2024-03-07T19:15:51;57.25;;;23.63;;
40541;SDS011;49288;52.194;5.676;2024-03-07T19:20:54;55.97;;;20.35;;
40541;SDS011;49288;52.194;5.676;2024-03-07T19:25:57;48.35;;;18.92;;
40541;SDS011;49288;52.194;5.676;2024-03-07T19:31:06;44.63;;;18.55;;
40541;SDS011;49288;52.194;5.676;2024-03-07T19:36:16;53.65;;;20.40;;
40541;SDS011;49288;52.194;5.676;2024-03-07T19:41:18;54.30;;;19.15;;
40541;SDS011;49288;52.194;5.676;2024-03-07T19:46:25;51.80;;;19.05;;
40541;SDS011;49288;52.194;5.676;2024-03-07T19:51:30;44.70;;;18.23;;
40541;SDS011;49288;52.194;5.676;2024-03-07T19:56:32;52.20;;;21.25;;
40541;SDS011;49288;52.194;5.676;2024-03-07T20:01:38;52.50;;;21.90;;
40541;SDS011;49288;52.194;5.676;2024-03-07T20:06:42;51.30;;;22.45;;
40541;SDS011;49288;52.194;5.676;2024-03-07T20:11:47;64.07;;;22.52;;
40541;SDS011;49288;52.194;5.676;2024-03-07T20:16:53;53.17;;;21.13;;
40541;SDS011;49288;52.194;5.676;2024-03-07T20:22:15;49.83;;;21.20;;
40541;SDS011;49288;52.194;5.676;2024-03-07T20:27:18;57.95;;;22.85;;
40541;SDS011;49288;52.194;5.676;2024-03-07T20:32:22;56.50;;;21.87;;
40541;SDS011;49288;52.194;5.676;2024-03-07T20:37:26;58.55;;;23.05;;
40541;SDS011;49288;52.194;5.676;2024-03-07T20:42:28;61.13;;;23.55;;
40541;SDS011;49288;52.194;5.676;2024-03-07T20:47:32;59.50;;;23.40;;
40541;SDS011;49288;52.194;5.676;2024-03-07T20:52:41;53.92;;;20.48;;
40541;SDS011;49288;52.194;5.676;2024-03-07T20:57:51;58.05;;;22.35;;
40541;SDS011;49288;52.194;5.676;2024-03-07T21:02:56;45.50;;;18.08;;
40541;SDS011;49288;52.194;5.676;2024-03-07T21:08:00;57.28;;;23.75;;
40541;SDS011;49288;52.194;5.676;2024-03-07T21:13:04;65.57;;;26.07;;
40541;SDS011;49288;52.194;5.676;2024-03-07T21:18:29;65.47;;;23.38;;
40541;SDS011;49288;52.194;5.676;2024-03-07T21:23:33;59.72;;;21.40;;
40541;SDS011;49288;52.194;5.676;2024-03-07T21:28:35;64.75;;;22.60;;
40541;SDS011;49288;52.194;5.676;2024-03-07T21:33:38;64.75;;;24.33;;
40541;SDS011;49288;52.194;5.676;2024-03-07T21:38:42;71.43;;;25.73;;
40541;SDS011;49288;52.194;5.676;2024-03-07T21:43:45;64.13;;;22.30;;
40541;SDS011;49288;52.194;5.676;2024-03-07T21:48:49;65.63;;;25.80;;
40541;SDS011;49288;52.194;5.676;2024-03-07T21:53:54;66.00;;;24.48;;
40541;SDS011;49288;52.194;5.676;2024-03-07T21:58:59;42.83;;;17.67;;
40541;SDS011;49288;52.194;5.676;2024-03-07T22:04:08;73.68;;;25.45;;
40541;SDS011;49288;52.194;5.676;2024-03-07T22:09:14;47.47;;;17.42;;
40541;SDS011;49288;52.194;5.676;2024-03-07T22:14:17;62.15;;;25.80;;
40541;SDS011;49288;52.194;5.676;2024-03-07T22:19:24;69.00;;;26.95;;
40541;SDS011;49288;52.194;5.676;2024-03-07T22:24:26;69.85;;;29.70;;
40541;SDS011;49288;52.194;5.676;2024-03-07T22:29:29;76.18;;;26.88;;
40541;SDS011;49288;52.194;5.676;2024-03-07T22:34:32;75.60;;;29.27;;
40541;SDS011;49288;52.194;5.676;2024-03-07T22:39:35;67.95;;;25.90;;
40541;SDS011;49288;52.194;5.676;2024-03-07T22:44:38;55.22;;;22.02;;
40541;SDS011;49288;52.194;5.676;2024-03-07T22:49:41;68.43;;;27.17;;
40541;SDS011;49288;52.194;5.676;2024-03-07T22:54:44;69.55;;;25.83;;
40541;SDS011;49288;52.194;5.676;2024-03-07T22:59:50;61.10;;;22.77;;
40541;SDS011;49288;52.194;5.676;2024-03-07T23:04:52;65.30;;;24.02;;
40541;SDS011;49288;52.194;5.676;2024-03-07T23:09:57;67.55;;;24.00;;
40541;SDS011;49288;52.194;5.676;2024-03-07T23:15:00;75.95;;;27.25;;
40541;SDS011;49288;52.194;5.676;2024-03-07T23:20:07;68.30;;;23.83;;
40541;SDS011;49288;52.194;5.676;2024-03-07T23:25:16;74.05;;;27.95;;
40541;SDS011;49288;52.194;5.676;2024-03-07T23:30:22;74.53;;;27.55;;
40541;SDS011;49288;52.194;5.676;2024-03-07T23:35:26;75.22;;;27.27;;
40541;SDS011;49288;52.194;5.676;2024-03-07T23:40:29;77.85;;;26.85;;
40541;SDS011;49288;52.194;5.676;2024-03-07T23:45:32;59.35;;;20.58;;
40541;SDS011;49288;52.194;5.676;2024-03-07T23:50:34;75.13;;;25.70;;
40541;SDS011;49288;52.194;5.676;2024-03-07T23:55:37;70.95;;;25.48;;
